Peggy Winslow — WDC5765 — position and weather

sailwx.info

Track history (hours):
 
Tides and Currents Weather Stations Pressure Air Temp Water Temp Dewpoint Dewpoint Depression Visibility Wind Speed Wind Dir Waves Ship Positions

Peggy Winslow

Owner: Winslow Marine Inc., Falmouth, ME. More information available from US FCC via Universal Licensing System and Coast Guard Vessel Documentation Center.

Last reported at 2017-Nov-04 19:06 UTC. Time now 2017-Dec-12 04:47 UTC.
Position N 42°59' W 070°17'.
Warning: this ship's position is 37 days out of date.

; draft 5.5 m.

Type: Towing. MMSI: 397046090.

Date/timePositionNaut miles runAvg speedWind from/ knotsBaromVisibWave heightAir tempDewpointWater temp
2017-Nov-04 19:06N 42°59' W 070°17'110.5
2017-Nov-04 18:59N 42°58' W 070°17'510.5
2017-Nov-04 18:30N 42°53' W 070°18'510.5
2017-Nov-04 18:00N 42°48' W 070°19'510.4
2017-Nov-04 17:30N 42°42' W 070°20'510.5
2017-Nov-04 17:00N 42°37' W 070°21'510.4
2017-Nov-04 16:30N 42°32' W 070°22'710.4
2017-Nov-04 15:52N 42°26' W 070°23'410.1
2017-Nov-04 15:30N 42°22' W 070°23'510.1
2017-Nov-04 14:59N 42°17' W 070°24'101 9.1
2017-Nov-04 03:49N 41°14' W 072°11'310.2
2017-Nov-04 03:30N 41°14' W 072°15'5 9.7
2017-Nov-04 03:00N 41°12' W 072°21'4 8.9
2017-Nov-04 02:30N 41°11' W 072°27'5 9.0
2017-Nov-04 01:59N 41°10' W 072°33'4 9.1
2017-Nov-04 01:30N 41°08' W 072°38'4 9.0
2017-Nov-04 01:00N 41°07' W 072°44'4710.0
2017-Nov-03 20:19N 40°53' W 073°43'310.7
2017-Nov-03 20:00N 40°50' W 073°46'4 8.6
2017-Nov-03 19:30N 40°48' W 073°51'4 8.0
2017-Nov-03 18:59N 40°47' W 073°56'3 7.2
2017-Nov-03 18:30N 40°44' W 073°58'3 6.8
2017-Nov-03 18:01N 40°41' W 074°01'4 8.4
2017-Nov-03 17:30N 40°39' W 074°06'2 4.7
2017-Nov-03 17:00N 40°39' W 074°09'1 1.3
2017-Nov-03 16:30N 40°40' W 074°09'1 1.6
2017-Nov-03 16:00N 40°40' W 074°08'2 3.6
2017-Nov-03 15:31N 40°39' W 074°09'3 5.1
2017-Nov-03 15:00N 40°39' W 074°06'3 5.4
2017-Nov-03 14:30N 40°40' W 074°03'4 7.5
2017-Nov-03 14:00N 40°43' W 073°59'4 7.0
2017-Nov-03 13:30N 40°46' W 073°57'3 5.5
2017-Nov-03 12:59N 40°48' W 073°54'2 4.5
2017-Nov-03 12:30N 40°48' W 073°51'3 6.0
2017-Nov-03 12:00N 40°48' W 073°48'39 6.0
2017-Nov-03 05:34N 41°03' W 073°00'0 6.8
2017-Nov-03 05:30N 41°03' W 072°60'13 6.9
2017-Nov-03 03:34N 41°07' W 072°43'1 7.0
2017-Nov-03 03:25N 41°07' W 072°42'3 7.0
2017-Nov-03 03:00N 41°08' W 072°38'3 6.9
2017-Nov-03 02:30N 41°09' W 072°34'4 7.4
2017-Nov-03 02:00N 41°10' W 072°29'4 7.2
2017-Nov-03 01:30N 41°11' W 072°24'4 7.0
2017-Nov-03 00:55N 41°12' W 072°19'3 7.3
2017-Nov-03 00:30N 41°13' W 072°15'91 6.1
2017-Nov-02 09:34N 41°58' W 070°29'5 6.4
2017-Nov-02 08:48N 42°02' W 070°30'2 6.2
2017-Nov-02 08:30N 42°04' W 070°31'3 6.1
2017-Nov-02 07:58N 42°07' W 070°31'3 5.9
2017-Nov-02 07:30N 42°10' W 070°32'3 6.0
2017-Nov-02 07:00N 42°12' W 070°35'3 6.0
2017-Nov-02 06:30N 42°14' W 070°38'3 6.0
2017-Nov-02 06:00N 42°16' W 070°41'3 6.1
2017-Nov-02 05:30N 42°19' W 070°40'3 6.1
2017-Nov-02 05:00N 42°22' W 070°40'3 6.0
2017-Nov-02 04:30N 42°25' W 070°39'3 6.2
2017-Nov-02 04:00N 42°28' W 070°38'3 6.3
2017-Nov-02 03:30N 42°31' W 070°36'3 6.2
2017-Nov-02 03:00N 42°34' W 070°34'3 6.3
2017-Nov-02 02:30N 42°37' W 070°33'3 6.0
2017-Nov-02 02:00N 42°40' W 070°33'3 5.3
2017-Nov-02 01:30N 42°42' W 070°33'3 6.0
2017-Nov-02 01:00N 42°45' W 070°34'3 6.1
2017-Nov-02 00:30N 42°48' W 070°36'3 6.1
2017-Nov-02 00:00N 42°51' W 070°37'4 6.0
2017-Nov-01 23:25N 42°54' W 070°38'  
Track history (hours):
 
Tides and Currents Weather Stations Pressure Air Temp Water Temp Dewpoint Dewpoint Depression Visibility Wind Speed Wind Dir Waves Ship Positions

Peggy Winslow

Owner: Winslow Marine Inc., Falmouth, ME. More information available from US FCC via Universal Licensing System and Coast Guard Vessel Documentation Center.

Last reported at 2017-Nov-04 19:06 UTC. Time now 2017-Dec-12 04:47 UTC.
Position N 42°59' W 070°17'.
Warning: this ship's position is 37 days out of date.

; draft 5.5 m.

Type: Towing. MMSI: 397046090.

Date/timePositionNaut miles runAvg speedWind from/ knotsBaromVisibWave heightAir tempDewpointWater temp
2017-Nov-04 19:06N 42°59' W 070°17'110.5
2017-Nov-04 18:59N 42°58' W 070°17'510.5
2017-Nov-04 18:30N 42°53' W 070°18'510.5
2017-Nov-04 18:00N 42°48' W 070°19'510.4
2017-Nov-04 17:30N 42°42' W 070°20'510.5
2017-Nov-04 17:00N 42°37' W 070°21'510.4
2017-Nov-04 16:30N 42°32' W 070°22'710.4
2017-Nov-04 15:52N 42°26' W 070°23'410.1
2017-Nov-04 15:30N 42°22' W 070°23'510.1
2017-Nov-04 14:59N 42°17' W 070°24'101 9.1
2017-Nov-04 03:49N 41°14' W 072°11'310.2
2017-Nov-04 03:30N 41°14' W 072°15'5 9.7
2017-Nov-04 03:00N 41°12' W 072°21'4 8.9
2017-Nov-04 02:30N 41°11' W 072°27'5 9.0
2017-Nov-04 01:59N 41°10' W 072°33'4 9.1
2017-Nov-04 01:30N 41°08' W 072°38'4 9.0
2017-Nov-04 01:00N 41°07' W 072°44'4710.0
2017-Nov-03 20:19N 40°53' W 073°43'310.7
2017-Nov-03 20:00N 40°50' W 073°46'4 8.6
2017-Nov-03 19:30N 40°48' W 073°51'4 8.0
2017-Nov-03 18:59N 40°47' W 073°56'3 7.2
2017-Nov-03 18:30N 40°44' W 073°58'3 6.8
2017-Nov-03 18:01N 40°41' W 074°01'4 8.4
2017-Nov-03 17:30N 40°39' W 074°06'2 4.7
2017-Nov-03 17:00N 40°39' W 074°09'1 1.3
2017-Nov-03 16:30N 40°40' W 074°09'1 1.6
2017-Nov-03 16:00N 40°40' W 074°08'2 3.6
2017-Nov-03 15:31N 40°39' W 074°09'3 5.1
2017-Nov-03 15:00N 40°39' W 074°06'3 5.4
2017-Nov-03 14:30N 40°40' W 074°03'4 7.5
2017-Nov-03 14:00N 40°43' W 073°59'4 7.0
2017-Nov-03 13:30N 40°46' W 073°57'3 5.5
2017-Nov-03 12:59N 40°48' W 073°54'2 4.5
2017-Nov-03 12:30N 40°48' W 073°51'3 6.0
2017-Nov-03 12:00N 40°48' W 073°48'39 6.0
2017-Nov-03 05:34N 41°03' W 073°00'0 6.8
2017-Nov-03 05:30N 41°03' W 072°60'13 6.9
2017-Nov-03 03:34N 41°07' W 072°43'1 7.0
2017-Nov-03 03:25N 41°07' W 072°42'3 7.0
2017-Nov-03 03:00N 41°08' W 072°38'3 6.9
2017-Nov-03 02:30N 41°09' W 072°34'4 7.4
2017-Nov-03 02:00N 41°10' W 072°29'4 7.2
2017-Nov-03 01:30N 41°11' W 072°24'4 7.0
2017-Nov-03 00:55N 41°12' W 072°19'3 7.3
2017-Nov-03 00:30N 41°13' W 072°15'91 6.1
2017-Nov-02 09:34N 41°58' W 070°29'5 6.4
2017-Nov-02 08:48N 42°02' W 070°30'2 6.2
2017-Nov-02 08:30N 42°04' W 070°31'3 6.1
2017-Nov-02 07:58N 42°07' W 070°31'3 5.9
2017-Nov-02 07:30N 42°10' W 070°32'3 6.0
2017-Nov-02 07:00N 42°12' W 070°35'3 6.0
2017-Nov-02 06:30N 42°14' W 070°38'3 6.0
2017-Nov-02 06:00N 42°16' W 070°41'3 6.1
2017-Nov-02 05:30N 42°19' W 070°40'3 6.1
2017-Nov-02 05:00N 42°22' W 070°40'3 6.0
2017-Nov-02 04:30N 42°25' W 070°39'3 6.2
2017-Nov-02 04:00N 42°28' W 070°38'3 6.3
2017-Nov-02 03:30N 42°31' W 070°36'3 6.2
2017-Nov-02 03:00N 42°34' W 070°34'3 6.3
2017-Nov-02 02:30N 42°37' W 070°33'3 6.0
2017-Nov-02 02:00N 42°40' W 070°33'3 5.3
2017-Nov-02 01:30N 42°42' W 070°33'3 6.0
2017-Nov-02 01:00N 42°45' W 070°34'3 6.1
2017-Nov-02 00:30N 42°48' W 070°36'3 6.1
2017-Nov-02 00:00N 42°51' W 070°37'4 6.0
2017-Nov-01 23:25N 42°54' W 070°38'  

Dump ship's entire track history